Portada
METAR-TAF:

METAR-TAF

Aeropuertos :

Aeropuerto de Rabat-Salé

Rabat, Marruecos

latitud: 34-03N, longitud: 006-46W, altitud: 84 m

Observación

El informe se hizo hace 41 minutos, a las 19:00 UTC
Viento 3 kt del sur-sureste, variando entre este-sureste y sur-suroeste
Temperatura 15°C
Humedad 100%
Presión 1013 hPa
Visibilidad: 5000 m
Escasas nubes a una altura de 1100 ft
Cielo nuboso a una altura de 2000 ft

METAR: GMME 291900Z 16003KT 120V200 5000 FEW011 BKN020 15/15 Q1013 RERA NOSIG

Hora: 20:41 (19:41 UTC)

Pronóstico

El informe se hizo hace 2 horas y 41 minutos, a las 17:00 UTC
Pronóstico válido del 29 a las 18 UTC al 30 a las 24 UTC
Viento 10 kt del sur
Visibilidad: 5000 m
Nubes dispersas a una altura de 2000 ft
Cielo nuboso a una altura de 7000 ft
Temporalmente
del 29 a las 22 UTC al 30 a las 09 UTC
Viento 8 kt del este

TAF: GMME 291700Z 2918/3024 18010KT 5000 SCT020 BKN070 TEMPO 2922/3009 09008KT

Observaciones y pronósticos meteorológicos de más de 4000 aeropuertos (mensajes METAR y TAF).

Los puntos amarillos y rojos representan las estaciones disponibles.

Ponga el ratón en el punto deseado para ver el nombre de la estación.

Haga clic para ver las observaciones y los pronósticos meteorológicos.

Para cambiar el mapa : haga clic en los botones verdes con una cruz de color negro para hacer un zoom, en el botón verde con un guión para alejar o en las flechas verdes para mapas adyacentes.


METAR-TAF: